Time;durP1;ratioP1;P1;durP2;ratioP2;P2;SDS_P1;SDS_P2;PMS_P1;PMS_P2;Temp;Humidity;BMP_temperature;BMP_pressure;BME280_temperature;BME280_humidity;BME280_pressure;Samples;Min_cycle;Max_cycle;Signal;HPM_P1;HPM_P2
2023/02/12 00:00:06;;;;;;;24.10;5.38;;;6.30;99.90;;;;;;5018435;28;20041;-81
2023/02/12 00:02:33;;;;;;;26.60;5.80;;;6.30;99.90;;;;;;5063929;28;20120;-81
2023/02/12 00:05:00;;;;;;;21.52;5.93;;;6.30;99.90;;;;;;5054566;28;20127;-81
2023/02/12 00:07:30;;;;;;;18.58;5.97;;;6.30;99.90;;;;;;5038188;28;20083;-81
2023/02/12 00:09:56;;;;;;;24.48;6.38;;;6.20;99.90;;;;;;5054545;28;20033;-81
2023/02/12 00:12:23;;;;;;;37.38;8.27;;;6.30;99.90;;;;;;5061636;28;20628;-82
2023/02/12 00:14:50;;;;;;;26.00;5.78;;;6.30;99.90;;;;;;5050466;28;20041;-81
2023/02/12 00:17:17;;;;;;;31.38;7.38;;;6.30;99.90;;;;;;5033497;28;20041;-81
2023/02/12 00:19:43;;;;;;;34.13;6.32;;;6.30;99.90;;;;;;5018482;28;20064;-81
2023/02/12 00:22:10;;;;;;;27.25;7.13;;;6.30;99.90;;;;;;5051321;28;20033;-82
2023/02/12 00:24:37;;;;;;;32.28;6.65;;;6.30;99.90;;;;;;5067469;28;20038;-82
2023/02/12 00:27:03;;;;;;;34.67;6.35;;;6.30;99.90;;;;;;5018564;28;20049;-81
2023/02/12 00:29:30;;;;;;;31.15;6.20;;;6.20;99.90;;;;;;5034417;28;20064;-81
2023/02/12 00:31:57;;;;;;;19.13;6.38;;;6.20;99.90;;;;;;5018161;28;20048;-81
2023/02/12 00:34:23;;;;;;;36.03;7.32;;;6.30;99.90;;;;;;5036495;28;20064;-81
2023/02/12 00:36:50;;;;;;;32.53;7.20;;;6.20;99.90;;;;;;5037821;28;20056;-81
2023/02/12 00:39:17;;;;;;;31.83;6.70;;;6.20;99.90;;;;;;5037473;28;20044;-81
2023/02/12 00:41:43;;;;;;;27.13;6.47;;;6.20;99.90;;;;;;5037831;28;20122;-81
2023/02/12 00:44:10;;;;;;;27.88;7.22;;;6.20;99.90;;;;;;5053996;28;20036;-81
2023/02/12 00:46:37;;;;;;;29.00;7.20;;;6.20;99.90;;;;;;5068706;28;20037;-81
2023/02/12 00:49:03;;;;;;;29.15;7.68;;;6.20;99.90;;;;;;5034104;28;20141;-81
2023/02/12 00:51:30;;;;;;;34.65;7.28;;;6.20;99.90;;;;;;5017441;28;20111;-81
2023/02/12 00:53:57;;;;;;;27.20;7.40;;;6.20;99.90;;;;;;5018069;28;20132;-81
2023/02/12 00:56:23;;;;;;;23.83;7.60;;;6.20;99.90;;;;;;5033376;28;20156;-81
2023/02/12 00:58:50;;;;;;;23.38;7.57;;;6.20;99.90;;;;;;5033744;28;20083;-81
2023/02/12 01:01:17;;;;;;;36.20;7.45;;;6.20;99.90;;;;;;5017625;28;20041;-81
2023/02/12 01:03:44;;;;;;;32.47;7.38;;;6.20;99.90;;;;;;5049749;28;20045;-81
2023/02/12 01:06:10;;;;;;;22.73;7.00;;;6.20;99.90;;;;;;5050064;28;20513;-81
2023/02/12 01:08:37;;;;;;;31.60;7.57;;;6.10;99.90;;;;;;5017271;28;20087;-81
2023/02/12 01:11:05;;;;;;;37.40;7.93;;;6.10;99.90;;;;;;5033552;28;20523;-81
2023/02/12 01:13:32;;;;;;;30.67;8.63;;;6.10;99.90;;;;;;5033750;28;20374;-81
2023/02/12 01:16:16;;;;;;;33.72;8.32;;;6.20;99.90;;;;;;5066397;28;20096;-81
2023/02/12 01:18:44;;;;;;;42.17;8.77;;;6.20;99.90;;;;;;5050072;28;20072;-81
2023/02/12 01:21:20;;;;;;;42.25;8.45;;;6.20;99.90;;;;;;5050051;28;20044;-81
2023/02/12 01:23:47;;;;;;;34.42;8.13;;;6.20;99.90;;;;;;5049894;28;20060;-81
2023/02/12 01:26:16;;;;;;;35.67;9.23;;;6.10;99.90;;;;;;5068393;28;20044;-81
2023/02/12 01:28:47;;;;;;;32.70;8.80;;;6.10;99.90;;;;;;5068848;28;20040;-81
2023/02/12 01:31:17;;;;;;;36.30;8.73;;;6.20;99.90;;;;;;5070005;28;20045;-81
2023/02/12 01:33:47;;;;;;;32.63;8.45;;;6.20;99.90;;;;;;5069561;28;20103;-81
2023/02/12 01:36:14;;;;;;;37.40;8.90;;;6.10;99.90;;;;;;5069939;28;20650;-81
2023/02/12 01:38:41;;;;;;;40.85;8.18;;;6.10;99.90;;;;;;5036539;28;20588;-81
2023/02/12 01:41:13;;;;;;;31.63;8.65;;;6.10;99.90;;;;;;5052980;28;20048;-81
2023/02/12 01:43:40;;;;;;;30.63;9.18;;;6.10;99.90;;;;;;5069195;28;20037;-80
2023/02/12 01:46:11;;;;;;;27.95;8.00;;;6.10;99.90;;;;;;5052977;28;20187;-81
2023/02/12 01:48:44;;;;;;;27.88;7.95;;;6.10;99.90;;;;;;5082867;28;20497;-81
2023/02/12 01:51:18;;;;;;;28.98;8.93;;;6.10;99.90;;;;;;5098918;28;20634;-81
2023/02/12 01:53:50;;;;;;;31.30;8.85;;;6.10;99.90;;;;;;5084097;28;20494;-81
2023/02/12 01:56:17;;;;;;;31.65;8.68;;;6.10;99.90;;;;;;5059034;28;20050;-81
2023/02/12 01:58:46;;;;;;;23.95;7.65;;;6.10;99.90;;;;;;5032460;28;20075;-81
2023/02/12 02:01:18;;;;;;;36.30;9.05;;;6.10;99.90;;;;;;5049445;28;20413;-81
2023/02/12 02:03:50;;;;;;;33.53;8.70;;;6.10;99.90;;;;;;5048763;28;20060;-81
2023/02/12 02:06:32;;;;;;;29.27;7.95;;;6.10;99.90;;;;;;5049270;28;20049;-81
2023/02/12 02:09:00;;;;;;;32.20;7.47;;;6.10;99.90;;;;;;5049105;28;20516;-81
2023/02/12 02:14:31;;;;;;;25.70;8.25;;;6.10;99.90;;;;;;5042619;28;20051;-81
2023/02/12 02:17:25;;;;;;;28.05;8.07;;;6.10;99.90;;;;;;5069005;28;20041;-81
2023/02/12 02:19:52;;;;;;;30.63;8.10;;;6.10;99.90;;;;;;5068490;28;20048;-81
2023/02/12 02:22:24;;;;;;;28.85;8.27;;;6.10;99.90;;;;;;5055933;28;20098;-81
2023/02/12 02:25:13;;;;;;;25.25;8.73;;;6.10;99.90;;;;;;5048988;28;20418;-81
2023/02/12 02:27:53;;;;;;;31.25;8.27;;;6.10;99.90;;;;;;5048611;28;20395;-81
2023/02/12 02:30:39;;;;;;;30.73;8.13;;;6.10;99.90;;;;;;5048826;28;20437;-81
2023/02/12 02:33:08;;;;;;;28.60;8.38;;;6.10;99.90;;;;;;5064885;28;20090;-81
2023/02/12 02:35:45;;;;;;;27.15;9.23;;;6.10;99.90;;;;;;5068328;28;20098;-81
2023/02/12 02:38:23;;;;;;;27.40;10.00;;;6.10;99.90;;;;;;5085492;28;20044;-81
2023/02/12 02:41:06;;;;;;;25.08;7.47;;;6.10;99.90;;;;;;5070846;28;20045;-81
2023/02/12 02:43:47;;;;;;;19.02;4.68;;;6.10;99.90;;;;;;5054490;28;20041;-81
2023/02/12 02:46:26;;;;;;;33.15;8.35;;;6.10;99.90;;;;;;5052718;28;20049;-81
2023/02/12 02:48:59;;;;;;;33.03;9.50;;;6.10;99.90;;;;;;5052693;28;20041;-81
2023/02/12 02:51:33;;;;;;;36.13;9.82;;;6.10;99.90;;;;;;5052578;28;20471;-81
2023/02/12 02:54:14;;;;;;;30.95;9.98;;;6.10;99.90;;;;;;5053648;28;20069;-81
2023/02/12 02:56:46;;;;;;;34.05;9.75;;;6.10;99.90;;;;;;5052282;28;20077;-81
2023/02/12 02:59:31;;;;;;;30.73;9.50;;;6.10;99.90;;;;;;5052472;28;20041;-81
2023/02/12 03:02:06;;;;;;;37.08;9.75;;;6.10;99.90;;;;;;5068732;28;20514;-81
2023/02/12 03:04:39;;;;;;;29.30;10.30;;;6.10;99.90;;;;;;5052550;28;20045;-81
2023/02/12 03:07:14;;;;;;;29.42;9.75;;;6.10;99.90;;;;;;5068868;28;20044;-81
2023/02/12 03:09:45;;;;;;;33.10;10.10;;;6.10;99.90;;;;;;5052168;28;20072;-81
2023/02/12 03:12:18;;;;;;;40.17;10.75;;;6.10;99.90;;;;;;5052357;28;20037;-81
2023/02/12 03:15:14;;;;;;;30.40;9.05;;;6.10;99.90;;;;;;5067431;28;20082;-81
2023/02/12 03:17:44;;;;;;;35.85;9.68;;;6.10;99.90;;;;;;5071904;28;20040;-81
2023/02/12 03:20:29;;;;;;;35.33;9.13;;;6.10;99.90;;;;;;5072071;28;20044;-81
2023/02/12 03:23:03;;;;;;;34.75;9.35;;;6.10;99.90;;;;;;5071911;28;20045;-82
2023/02/12 03:25:41;;;;;;;37.85;9.27;;;6.10;99.90;;;;;;5053632;28;20052;-81
2023/02/12 03:28:21;;;;;;;29.45;8.88;;;6.10;99.90;;;;;;5052450;28;20037;-81
2023/02/12 03:31:10;;;;;;;27.98;8.80;;;6.10;99.90;;;;;;5051637;28;20041;-81
2023/02/12 03:33:56;;;;;;;29.00;8.65;;;6.10;99.90;;;;;;5068553;28;20029;-81
2023/02/12 03:36:41;;;;;;;39.97;10.15;;;6.10;99.90;;;;;;5052004;28;20180;-81
2023/02/12 03:39:42;;;;;;;32.53;9.40;;;6.10;99.90;;;;;;5051952;28;20574;-81
2023/02/12 03:42:15;;;;;;;33.70;9.85;;;6.10;99.90;;;;;;5051674;28;20042;-81
2023/02/12 03:44:47;;;;;;;35.42;9.32;;;6.10;99.90;;;;;;5052512;28;20486;-81
2023/02/12 03:47:17;;;;;;;33.47;10.10;;;6.10;99.90;;;;;;5051734;28;20533;-81
2023/02/12 03:49:58;;;;;;;30.83;10.70;;;6.10;99.90;;;;;;5051071;28;20045;-81
2023/02/12 03:52:24;;;;;;;31.77;10.15;;;6.00;99.90;;;;;;5068243;28;20077;-81
2023/02/12 03:54:51;;;;;;;35.38;10.32;;;6.00;99.90;;;;;;5023534;28;20067;-81
2023/02/12 03:57:29;;;;;;;37.08;11.70;;;6.00;99.90;;;;;;5031100;28;20073;-81
2023/02/12 04:00:03;;;;;;;40.88;11.00;;;6.00;99.90;;;;;;5067902;28;20083;-81
2023/02/12 04:02:30;;;;;;;34.63;10.43;;;6.00;99.90;;;;;;5051449;28;20056;-81
2023/02/12 04:04:57;;;;;;;37.47;10.32;;;5.90;99.90;;;;;;5018938;28;20091;-81
2023/02/12 04:07:24;;;;;;;28.90;9.38;;;5.90;99.90;;;;;;5087875;28;20040;-81
2023/02/12 04:09:50;;;;;;;34.00;10.02;;;5.80;99.90;;;;;;5038230;28;20037;-81
2023/02/12 04:12:44;;;;;;;30.50;9.50;;;5.80;99.90;;;;;;5071573;28;20033;-81
2023/02/12 04:15:32;;;;;;;30.17;9.05;;;5.80;99.90;;;;;;5071132;28;20150;-81
2023/02/12 04:18:21;;;;;;;29.35;9.68;;;5.70;99.90;;;;;;5070556;28;20051;-81
2023/02/12 04:21:06;;;;;;;42.22;9.65;;;5.70;99.90;;;;;;5087129;28;20159;-81
2023/02/12 04:24:00;;;;;;;28.77;8.63;;;5.70;99.90;;;;;;5072785;28;20076;-81
2023/02/12 04:26:27;;;;;;;44.40;9.85;;;5.70;99.90;;;;;;5067520;28;20033;-81
2023/02/12 04:29:12;;;;;;;40.13;9.40;;;5.60;99.90;;;;;;5050716;28;20041;-81
2023/02/12 04:31:42;;;;;;;35.17;9.00;;;5.60;99.90;;;;;;5051106;28;20047;-81
2023/02/12 04:34:38;;;;;;;39.03;9.27;;;5.70;99.90;;;;;;5063876;28;20494;-81
2023/02/12 04:37:22;;;;;;;56.85;10.05;;;5.60;99.90;;;;;;5087223;28;20069;-81
2023/02/12 04:39:51;;;;;;;56.92;9.70;;;5.60;99.90;;;;;;5087051;28;20076;-81
2023/02/12 04:42:18;;;;;;;63.10;11.20;;;5.60;99.90;;;;;;5070498;28;20683;-81
2023/02/12 04:44:48;;;;;;;65.93;11.00;;;5.60;99.90;;;;;;5034076;28;20045;-81
2023/02/12 04:47:15;;;;;;;71.85;10.85;;;5.80;99.90;;;;;;5050608;28;20132;-81
2023/02/12 04:49:42;;;;;;;68.05;11.40;;;5.60;99.90;;;;;;5053529;28;20044;-81
2023/02/12 04:52:09;;;;;;;49.92;11.25;;;5.60;99.90;;;;;;5050130;28;20041;-81
2023/02/12 04:54:36;;;;;;;70.90;11.57;;;5.60;99.90;;;;;;5066952;28;20057;-81
2023/02/12 04:57:03;;;;;;;65.68;11.57;;;5.80;99.90;;;;;;5017995;28;20049;-81
2023/02/12 04:59:30;;;;;;;85.57;11.45;;;5.60;99.90;;;;;;5034073;28;20037;-81
2023/02/12 05:01:56;;;;;;;70.63;12.50;;;5.60;99.90;;;;;;5016971;28;20049;-81
2023/02/12 05:04:23;;;;;;;112.53;12.20;;;5.60;99.90;;;;;;5029364;28;20449;-81
2023/02/12 05:06:50;;;;;;;100.22;12.68;;;5.60;99.90;;;;;;5050019;28;20044;-81
2023/02/12 05:09:19;;;;;;;44.88;11.82;;;5.60;99.90;;;;;;5049968;28;20041;-81
2023/02/12 05:11:46;;;;;;;92.82;13.80;;;5.60;99.90;;;;;;5061134;28;20041;-81
2023/02/12 05:14:13;;;;;;;83.40;12.68;;;5.60;99.90;;;;;;5064525;28;20079;-81
2023/02/12 05:16:39;;;;;;;104.68;14.15;;;5.60;99.90;;;;;;5065266;28;20073;-81
2023/02/12 05:19:08;;;;;;;58.13;12.82;;;5.60;99.90;;;;;;5048554;28;20094;-81
2023/02/12 05:21:35;;;;;;;63.38;13.68;;;5.60;99.90;;;;;;5035493;28;20566;-81
2023/02/12 05:24:02;;;;;;;125.05;15.45;;;5.60;99.90;;;;;;5079795;28;20037;-81
2023/02/12 05:26:29;;;;;;;67.70;13.43;;;5.60;99.90;;;;;;5058576;28;20085;-81
2023/02/12 05:28:56;;;;;;;107.90;16.30;;;5.60;99.90;;;;;;5049529;28;20106;-82
2023/02/12 05:31:23;;;;;;;84.57;16.33;;;5.60;99.90;;;;;;5032640;28;20119;-81
2023/02/12 05:33:50;;;;;;;60.42;14.95;;;5.60;99.90;;;;;;5087308;28;20181;-81
2023/02/12 05:36:20;;;;;;;40.75;14.25;;;5.60;99.90;;;;;;5062501;28;20041;-81
2023/02/12 05:38:48;;;;;;;69.10;15.95;;;5.70;99.90;;;;;;5075031;28;20382;-80
2023/02/12 05:41:18;;;;;;;55.92;15.48;;;5.60;99.90;;;;;;5036091;28;20044;-81
2023/02/12 05:43:45;;;;;;;114.10;18.05;;;5.60;99.90;;;;;;5077137;28;20048;-81
2023/02/12 05:46:12;;;;;;;85.68;17.13;;;5.70;99.90;;;;;;5038891;28;20041;-81
2023/02/12 05:48:39;;;;;;;128.35;18.35;;;5.70;99.90;;;;;;5053017;28;20040;-81
2023/02/12 05:51:10;;;;;;;103.75;17.08;;;5.60;99.90;;;;;;5068896;28;20615;-81
2023/02/12 05:53:38;;;;;;;75.28;17.25;;;5.60;99.90;;;;;;5075000;28;20404;-81
2023/02/12 05:56:17;;;;;;;94.93;17.98;;;5.70;99.90;;;;;;5092644;28;20051;-81
2023/02/12 05:58:50;;;;;;;121.45;19.02;;;5.60;99.90;;;;;;5092517;28;20040;-81
2023/02/12 06:01:27;;;;;;;100.50;20.33;;;5.60;99.90;;;;;;5094525;28;20408;-81
2023/02/12 06:03:54;;;;;;;152.85;20.30;;;5.60;99.90;;;;;;5116615;28;20051;-81
2023/02/12 06:06:21;;;;;;;130.38;19.10;;;5.60;99.90;;;;;;5098035;28;20034;-81
2023/02/12 06:08:48;;;;;;;87.10;18.30;;;5.60;99.90;;;;;;5077242;28;20036;-81
2023/02/12 06:11:16;;;;;;;118.85;18.90;;;5.60;99.90;;;;;;5095584;28;20039;-81
2023/02/12 06:13:43;;;;;;;103.40;18.50;;;5.60;99.90;;;;;;5116381;28;20084;-81
2023/02/12 06:16:22;;;;;;;66.95;17.20;;;5.60;99.90;;;;;;5093116;28;20028;-82
2023/02/12 06:18:49;;;;;;;118.55;19.02;;;5.60;99.90;;;;;;5112643;28;20089;-81
2023/02/12 06:21:17;;;;;;;81.78;15.60;;;5.60;99.90;;;;;;5111733;28;20456;-81
2023/02/12 06:23:44;;;;;;;91.00;15.35;;;5.60;99.90;;;;;;5077263;28;20028;-81
2023/02/12 06:26:11;;;;;;;110.43;14.90;;;5.60;99.90;;;;;;5076688;28;20562;-81
2023/02/12 06:28:38;;;;;;;61.20;14.00;;;5.60;99.90;;;;;;5079137;28;20468;-81
2023/02/12 06:31:04;;;;;;;103.55;16.13;;;5.60;99.90;;;;;;5108291;28;20072;-81
2023/02/12 06:33:34;;;;;;;73.95;15.27;;;5.60;99.90;;;;;;5059122;28;20043;-81
2023/02/12 06:36:03;;;;;;;55.65;14.00;;;5.60;99.90;;;;;;5076110;28;20036;-81
2023/02/12 06:38:30;;;;;;;76.90;14.38;;;5.60;99.90;;;;;;5091870;28;20036;-81
2023/02/12 06:40:59;;;;;;;61.88;13.68;;;5.60;99.90;;;;;;5054112;28;20062;-81
2023/02/12 06:43:26;;;;;;;61.80;14.90;;;5.60;99.90;;;;;;5108518;28;20096;-81
2023/02/12 06:45:53;;;;;;;48.78;14.70;;;5.60;99.90;;;;;;5065563;28;20036;-81
2023/02/12 06:48:19;;;;;;;102.93;14.98;;;5.60;99.90;;;;;;5073716;28;20091;-81
2023/02/12 06:50:46;;;;;;;47.15;11.55;;;5.60;99.90;;;;;;5058715;28;20448;-81
2023/02/12 06:53:13;;;;;;;54.65;10.25;;;5.60;99.90;;;;;;5071995;28;20138;-81
2023/02/12 06:55:40;;;;;;;26.83;9.13;;;5.60;99.90;;;;;;5093364;28;20066;-81
2023/02/12 06:58:06;;;;;;;32.20;9.82;;;5.60;99.90;;;;;;5066026;28;20078;-81
2023/02/12 07:00:33;;;;;;;29.63;9.65;;;5.50;99.90;;;;;;5094752;28;20480;-81
2023/02/12 07:03:00;;;;;;;33.42;8.68;;;5.50;99.90;;;;;;5078512;28;20142;-81
2023/02/12 07:05:26;;;;;;;35.50;8.98;;;5.60;99.90;;;;;;5073900;28;20115;-81
2023/02/12 07:07:53;;;;;;;19.77;8.23;;;5.60;99.90;;;;;;5050050;28;20043;-81
2023/02/12 07:10:20;;;;;;;28.42;7.68;;;5.60;99.90;;;;;;5109179;28;20040;-81
2023/02/12 07:12:46;;;;;;;21.02;7.47;;;5.60;99.90;;;;;;5094772;28;20035;-82
2023/02/12 07:15:13;;;;;;;23.67;7.97;;;5.60;99.90;;;;;;5060218;28;20181;-81
2023/02/12 07:17:40;;;;;;;21.00;7.82;;;5.50;99.90;;;;;;5096476;28;20089;-81
2023/02/12 07:20:07;;;;;;;31.58;7.70;;;5.50;99.90;;;;;;5100336;28;20123;-81
2023/02/12 07:22:37;;;;;;;22.20;7.88;;;5.50;99.90;;;;;;5058481;28;20044;-81
2023/02/12 07:25:04;;;;;;;20.45;8.30;;;5.50;99.90;;;;;;5102869;28;20043;-81
2023/02/12 07:27:31;;;;;;;23.55;7.40;;;5.50;99.90;;;;;;5069780;28;20040;-81
2023/02/12 07:29:58;;;;;;;28.13;7.78;;;5.50;99.90;;;;;;5067382;28;20090;-82
2023/02/12 07:32:24;;;;;;;24.77;8.15;;;5.60;99.90;;;;;;5057182;28;20226;-82
2023/02/12 07:34:51;;;;;;;28.02;8.55;;;5.60;99.90;;;;;;5061924;28;20037;-83
2023/02/12 07:37:21;;;;;;;30.30;6.85;;;5.60;99.90;;;;;;5073418;28;20040;-82
2023/02/12 07:39:48;;;;;;;22.40;6.80;;;5.60;99.90;;;;;;5048769;28;20050;-82
2023/02/12 07:42:15;;;;;;;16.85;6.55;;;5.60;99.90;;;;;;5096553;28;20097;-82
2023/02/12 07:44:43;;;;;;;21.50;6.28;;;5.50;99.90;;;;;;5070342;28;20041;-81
2023/02/12 07:47:10;;;;;;;20.15;6.82;;;5.50;99.90;;;;;;5059508;28;20123;-81
2023/02/12 07:49:36;;;;;;;12.15;4.43;;;5.50;99.90;;;;;;5084755;28;20120;-82
2023/02/12 07:52:03;;;;;;;13.50;4.97;;;5.50;99.90;;;;;;5075080;28;20040;-82
2023/02/12 07:54:30;;;;;;;11.45;4.28;;;5.50;99.90;;;;;;5074188;28;20102;-82
2023/02/12 07:56:57;;;;;;;15.38;4.70;;;5.50;99.90;;;;;;5052725;28;20041;-82
2023/02/12 07:59:23;;;;;;;10.60;4.38;;;5.60;99.90;;;;;;5055493;28;20097;-81
2023/02/12 08:01:52;;;;;;;15.82;5.13;;;5.60;99.90;;;;;;5074450;28;20036;-81
2023/02/12 08:04:22;;;;;;;13.27;4.35;;;5.60;99.90;;;;;;5084406;28;20044;-81
2023/02/12 08:06:54;;;;;;;15.55;5.60;;;5.60;99.90;;;;;;5088352;28;20036;-81
2023/02/12 08:09:25;;;;;;;16.45;5.40;;;5.60;99.90;;;;;;5081751;28;20044;-81
2023/02/12 08:11:52;;;;;;;17.65;6.50;;;5.60;99.90;;;;;;5074628;28;20055;-81
2023/02/12 08:14:20;;;;;;;16.60;5.97;;;5.70;99.90;;;;;;5077869;28;20040;-82
2023/02/12 08:16:48;;;;;;;16.10;6.15;;;5.60;99.90;;;;;;5099792;28;20480;-82
2023/02/12 08:19:15;;;;;;;13.98;5.68;;;5.70;99.90;;;;;;5077730;28;20048;-82
2023/02/12 08:21:41;;;;;;;22.40;7.70;;;5.80;99.90;;;;;;5046945;28;20412;-80
2023/02/12 08:24:09;;;;;;;18.67;7.78;;;5.80;99.90;;;;;;5091664;28;20040;-80
2023/02/12 08:26:39;;;;;;;14.85;6.72;;;5.70;99.90;;;;;;5069625;28;20134;-80
2023/02/12 08:29:12;;;;;;;14.27;6.60;;;5.70;99.90;;;;;;5065862;28;20036;-81
2023/02/12 08:31:44;;;;;;;14.00;4.90;;;5.80;99.90;;;;;;5072635;28;20503;-81
2023/02/12 08:34:19;;;;;;;15.32;5.85;;;5.80;99.90;;;;;;5073951;28;20044;-80
2023/02/12 08:36:48;;;;;;;15.68;5.80;;;5.80;99.90;;;;;;5075621;28;20044;-80
2023/02/12 08:39:16;;;;;;;17.52;6.60;;;5.90;99.90;;;;;;5083568;28;20043;-80
2023/02/12 08:41:43;;;;;;;15.18;5.20;;;5.90;99.90;;;;;;5085120;28;20040;-80
2023/02/12 08:44:11;;;;;;;11.38;5.10;;;5.90;99.90;;;;;;5098458;28;20443;-81
2023/02/12 08:46:41;;;;;;;16.85;5.97;;;6.00;99.90;;;;;;5070421;28;20370;-81
2023/02/12 08:49:12;;;;;;;12.55;5.50;;;6.00;99.90;;;;;;5076068;28;20427;-81
2023/02/12 08:51:42;;;;;;;12.57;5.00;;;6.00;99.90;;;;;;5079557;28;20036;-81
2023/02/12 08:54:12;;;;;;;12.73;4.75;;;6.00;99.90;;;;;;5093065;28;20899;-81
2023/02/12 08:56:40;;;;;;;13.13;5.45;;;6.10;99.90;;;;;;5093203;28;20389;-81
2023/02/12 08:59:07;;;;;;;14.05;5.20;;;6.10;99.90;;;;;;5076631;28;20078;-81
2023/02/12 09:01:42;;;;;;;13.82;6.70;;;6.10;99.90;;;;;;5076157;28;20059;-81
2023/02/12 09:04:18;;;;;;;14.63;5.32;;;6.20;99.90;;;;;;5110149;28;20047;-81
2023/02/12 09:06:45;;;;;;;20.67;6.88;;;6.10;99.90;;;;;;5092886;28;20051;-81
2023/02/12 09:09:12;;;;;;;18.45;6.43;;;6.30;99.90;;;;;;5075833;28;20123;-81
2023/02/12 09:11:40;;;;;;;16.45;6.20;;;6.30;99.90;;;;;;5072593;28;20040;-82
2023/02/12 09:14:10;;;;;;;15.05;5.47;;;6.30;99.90;;;;;;5072958;28;20131;-81
2023/02/12 09:16:38;;;;;;;21.00;6.13;;;6.30;99.90;;;;;;5089491;28;20037;-81
2023/02/12 09:19:06;;;;;;;17.13;6.55;;;6.40;99.90;;;;;;5072414;28;20044;-81
2023/02/12 09:21:33;;;;;;;16.75;6.68;;;6.50;99.90;;;;;;5072146;28;20045;-80
2023/02/12 09:24:02;;;;;;;16.35;6.03;;;6.50;99.90;;;;;;5039395;28;20097;-81
2023/02/12 09:26:29;;;;;;;19.17;7.43;;;6.60;99.90;;;;;;5072617;28;20042;-81
2023/02/12 09:28:56;;;;;;;14.13;5.85;;;6.60;99.90;;;;;;5072682;28;20893;-82
2023/02/12 09:31:25;;;;;;;24.27;6.85;;;6.70;99.90;;;;;;5067861;28;20032;-82
2023/02/12 09:33:54;;;;;;;21.45;7.15;;;6.70;99.90;;;;;;5092631;28;20043;-81
2023/02/12 09:36:21;;;;;;;20.88;6.88;;;6.80;99.90;;;;;;5076166;28;20118;-81
2023/02/12 09:38:48;;;;;;;24.27;7.13;;;6.80;99.90;;;;;;5075574;28;20119;-81
2023/02/12 09:41:15;;;;;;;20.25;8.45;;;6.80;99.90;;;;;;5091664;28;20046;-81
2023/02/12 09:44:02;;;;;;;24.17;8.65;;;6.90;99.90;;;;;;5085590;28;20041;-82
2023/02/12 09:46:36;;;;;;;32.35;8.13;;;6.90;99.90;;;;;;5071679;28;20048;-82
2023/02/12 09:49:22;;;;;;;22.63;7.57;;;6.90;99.90;;;;;;5072139;28;20039;-81
2023/02/12 09:51:52;;;;;;;19.27;8.18;;;7.00;99.90;;;;;;5071980;28;20040;-80
2023/02/12 09:54:28;;;;;;;21.95;8.57;;;7.10;99.90;;;;;;5071117;28;20060;-81
2023/02/12 09:56:59;;;;;;;15.50;7.15;;;7.10;99.90;;;;;;5072208;28;20056;-80
2023/02/12 09:59:37;;;;;;;20.65;8.65;;;7.10;99.90;;;;;;5072105;28;20048;-80
2023/02/12 10:02:18;;;;;;;26.33;6.80;;;7.20;99.90;;;;;;5071793;28;20115;-80
2023/02/12 10:04:46;;;;;;;15.60;6.57;;;7.10;99.90;;;;;;5088179;28;20094;-80
2023/02/12 10:07:16;;;;;;;16.27;6.30;;;7.10;99.90;;;;;;5072206;28;20086;-80
2023/02/12 10:10:20;;;;;;;17.55;6.93;;;7.20;99.90;;;;;;5071665;28;20045;-81
2023/02/12 10:12:56;;;;;;;18.88;6.97;;;7.20;99.90;;;;;;5088164;28;20043;-81
2023/02/12 10:15:48;;;;;;;13.48;5.85;;;7.20;99.90;;;;;;5071773;28;20047;-80
2023/02/12 10:18:15;;;;;;;14.05;6.28;;;7.30;99.90;;;;;;5072193;28;20067;-80
2023/02/12 10:21:02;;;;;;;15.60;6.43;;;7.30;99.90;;;;;;5072133;28;20040;-80
2023/02/12 10:23:47;;;;;;;14.73;6.22;;;7.40;99.90;;;;;;5071780;28;20195;-80
2023/02/12 10:26:24;;;;;;;17.95;6.97;;;7.50;99.90;;;;;;5088509;28;20125;-80
2023/02/12 10:28:52;;;;;;;19.70;6.90;;;7.40;99.90;;;;;;5071885;28;20048;-80
2023/02/12 10:31:26;;;;;;;16.02;7.63;;;7.50;99.90;;;;;;5088000;28;20044;-81
2023/02/12 10:33:55;;;;;;;12.95;6.15;;;7.50;99.90;;;;;;5088088;28;20051;-80
2023/02/12 10:36:44;;;;;;;21.25;8.90;;;7.50;99.90;;;;;;5108595;28;20408;-80
2023/02/12 10:39:17;;;;;;;13.13;6.85;;;7.60;99.90;;;;;;5091579;28;20122;-80
2023/02/12 10:41:46;;;;;;;18.85;7.65;;;7.60;99.90;;;;;;5091798;28;20046;-80
2023/02/12 10:44:13;;;;;;;14.93;7.85;;;7.60;99.90;;;;;;5075964;28;20040;-80
2023/02/12 10:46:40;;;;;;;20.60;7.03;;;7.60;99.90;;;;;;5055177;28;20044;-80
2023/02/12 10:49:10;;;;;;;15.07;6.90;;;7.70;99.90;;;;;;5055665;28;20036;-80
2023/02/12 10:52:02;;;;;;;14.95;6.40;;;7.70;99.90;;;;;;5071944;28;20037;-80
2023/02/12 10:54:45;;;;;;;16.08;6.97;;;7.80;99.90;;;;;;5071802;28;20088;-80
2023/02/12 10:57:22;;;;;;;15.43;6.63;;;7.80;99.90;;;;;;5088608;28;20056;-80
2023/02/12 10:59:52;;;;;;;27.40;10.63;;;7.80;99.90;;;;;;5071893;28;20101;-80
2023/02/12 11:02:24;;;;;;;16.33;6.72;;;7.80;99.90;;;;;;5075071;28;20500;-80
2023/02/12 11:04:53;;;;;;;22.92;8.65;;;7.90;99.90;;;;;;5090901;28;20100;-80
2023/02/12 11:07:20;;;;;;;18.73;7.55;;;7.90;99.90;;;;;;5095980;28;20040;-80
2023/02/12 11:09:49;;;;;;;15.35;7.63;;;7.90;99.90;;;;;;5096072;28;20032;-80
2023/02/12 11:12:39;;;;;;;16.60;7.82;;;8.00;99.90;;;;;;5092894;28;20114;-80
2023/02/12 11:15:30;;;;;;;18.33;7.75;;;8.00;99.90;;;;;;5092051;28;20504;-80
2023/02/12 11:18:06;;;;;;;15.05;7.07;;;8.00;99.90;;;;;;5083505;28;20128;-80
2023/02/12 11:20:38;;;;;;;22.70;7.20;;;8.10;99.90;;;;;;5095981;28;20374;-80
2023/02/12 11:23:20;;;;;;;18.08;7.22;;;8.20;99.90;;;;;;5095278;28;20043;-80
2023/02/12 11:26:01;;;;;;;20.20;8.20;;;8.20;99.90;;;;;;5074716;28;20086;-80
2023/02/12 11:28:29;;;;;;;17.23;6.75;;;8.30;99.90;;;;;;5075246;28;20124;-80
2023/02/12 11:31:11;;;;;;;26.45;12.65;;;8.30;99.90;;;;;;5058802;28;20047;-80
2023/02/12 11:33:38;;;;;;;21.98;10.95;;;8.30;99.90;;;;;;5074899;28;20446;-81
2023/02/12 11:36:15;;;;;;;19.80;7.78;;;8.30;99.90;;;;;;5088816;28;20052;-80
2023/02/12 11:38:56;;;;;;;16.20;7.65;;;8.40;99.90;;;;;;5091620;28;20052;-80
2023/02/12 11:41:36;;;;;;;16.08;6.55;;;8.50;99.90;;;;;;5075184;28;20052;-79
2023/02/12 11:44:17;;;;;;;19.67;7.90;;;8.50;99.90;;;;;;5091783;28;20051;-80
2023/02/12 11:46:50;;;;;;;14.00;6.05;;;8.60;99.90;;;;;;5111642;28;20040;-80
2023/02/12 11:49:24;;;;;;;20.95;7.00;;;8.60;99.90;;;;;;5095148;28;20131;-80
2023/02/12 11:51:51;;;;;;;16.95;6.68;;;8.60;99.90;;;;;;5095087;28;20040;-80
2023/02/12 11:54:23;;;;;;;17.48;6.90;;;8.70;99.90;;;;;;5078176;28;20404;-80
2023/02/12 11:56:49;;;;;;;20.35;6.50;;;8.60;99.90;;;;;;5094115;28;20055;-80
2023/02/12 11:59:36;;;;;;;19.55;7.53;;;8.60;99.90;;;;;;5078392;28;20408;-80
2023/02/12 12:02:32;;;;;;;12.90;6.30;;;8.60;99.90;;;;;;5094664;28;20105;-80
2023/02/12 12:05:14;;;;;;;15.45;7.00;;;8.60;99.90;;;;;;5092004;28;20139;-80
2023/02/12 12:07:48;;;;;;;18.13;7.10;;;8.70;99.90;;;;;;5074534;28;20036;-80
2023/02/12 12:10:34;;;;;;;16.75;7.78;;;8.70;99.90;;;;;;5074665;28;20044;-80
2023/02/12 12:13:12;;;;;;;13.93;5.32;;;8.70;99.90;;;;;;5074287;28;20056;-80
2023/02/12 12:22:08;;;;;;;;;;;8.90;99.90;;;;;;5010935;28;20431;-80
2023/02/12 12:24:52;;;;;;;13.68;5.47;;;9.00;99.90;;;;;;5074488;28;19924;-80
2023/02/12 12:30:34;;;;;;;12.25;4.88;;;9.10;99.90;;;;;;5091022;28;20047;-80
2023/02/12 12:33:05;;;;;;;12.82;6.20;;;9.10;99.90;;;;;;5074175;28;20400;-80
2023/02/12 12:35:58;;;;;;;11.90;5.75;;;9.20;99.90;;;;;;5090835;28;20040;-80
2023/02/12 12:38:38;;;;;;;14.40;6.22;;;9.20;99.90;;;;;;5104081;28;20044;-80
2023/02/12 12:41:31;;;;;;;15.02;5.47;;;9.30;99.90;;;;;;5077713;28;20035;-80
2023/02/12 12:44:06;;;;;;;14.85;5.68;;;9.30;99.90;;;;;;5088329;28;20032;-80
2023/02/12 12:47:17;;;;;;;16.15;6.45;;;9.30;99.90;;;;;;5102278;28;20050;-80
2023/02/12 12:50:13;;;;;;;14.18;5.38;;;9.30;99.90;;;;;;5053361;28;20083;-79
2023/02/12 12:52:47;;;;;;;3.70;1.60;;;9.30;99.90;;;;;;5074209;28;20489;-79
2023/02/12 12:55:34;;;;;;;9.35;3.25;;;9.20;99.90;;;;;;5073484;28;20084;-79
2023/02/12 12:58:19;;;;;;;8.48;2.97;;;9.10;99.90;;;;;;5072518;28;20515;-79
2023/02/12 13:00:57;;;;;;;5.68;2.70;;;9.10;99.90;;;;;;5074251;28;20074;-79
2023/02/12 13:03:53;;;;;;;6.78;2.30;;;9.00;99.90;;;;;;5073829;28;20044;-79
2023/02/12 13:06:38;;;;;;;7.90;2.25;;;9.00;99.90;;;;;;5097584;28;20051;-79
2023/02/12 13:09:44;;;;;;;7.18;2.70;;;8.90;99.90;;;;;;5091991;28;20071;-79
2023/02/12 13:12:23;;;;;;;6.55;2.92;;;8.80;99.90;;;;;;5073514;28;20408;-79
2023/02/12 13:15:20;;;;;;;9.30;3.72;;;8.80;99.90;;;;;;5073659;28;20040;-79
2023/02/12 13:18:06;;;;;;;7.13;3.88;;;8.70;99.90;;;;;;5039054;28;20048;-79
2023/02/12 13:20:49;;;;;;;6.10;3.25;;;8.60;99.90;;;;;;5073485;28;20054;-79
2023/02/12 13:23:20;;;;;;;8.18;3.58;;;8.60;99.90;;;;;;5103931;28;20036;-79
2023/02/12 13:26:12;;;;;;;6.32;3.13;;;8.60;99.90;;;;;;5093279;28;20040;-79